Time;durP1;ratioP1;P1;durP2;ratioP2;P2;SDS_P1;SDS_P2;PMS_P1;PMS_P2;Temp;Humidity;BMP_temperature;BMP_pressure;BME280_temperature;BME280_humidity;BME280_pressure;Samples;Min_cycle;Max_cycle;Signal;HPM_P1;HPM_P2
2023/12/19 00:01:47;;;;;;;42.17;18.90;;;;;;;4.35;100.00;101279.75;10452818;28;20052;-79
2023/12/19 00:06:50;;;;;;;42.85;23.45;;;;;;;4.71;100.00;101311.94;10453399;28;20052;-81
2023/12/19 00:11:54;;;;;;;40.80;22.50;;;;;;;4.86;100.00;101306.94;10436465;28;20056;-80
2023/12/19 00:16:58;;;;;;;41.40;22.67;;;;;;;4.28;100.00;101323.47;10460405;28;20068;-81
2023/12/19 00:22:01;;;;;;;39.33;20.30;;;;;;;4.45;100.00;101325.47;10433069;28;20049;-81
2023/12/19 00:27:05;;;;;;;40.25;18.42;;;;;;;4.39;100.00;101307.97;10438323;28;20101;-80
2023/12/19 00:32:08;;;;;;;45.50;23.60;;;;;;;4.19;100.00;101314.06;10461920;28;20814;-77
2023/12/19 00:37:12;;;;;;;46.17;23.90;;;;;;;4.49;100.00;101297.81;10448191;28;20075;-81
2023/12/19 00:42:17;;;;;;;41.40;21.90;;;;;;;4.45;100.00;101305.06;10436227;28;20512;-79
2023/12/19 00:47:20;;;;;;;33.00;18.25;;;;;;;4.24;100.00;101309.44;10423352;28;20388;-81
2023/12/19 00:52:23;;;;;;;37.58;19.13;;;;;;;4.32;100.00;101296.69;10434392;28;20060;-80
2023/12/19 00:57:27;;;;;;;35.90;17.73;;;;;;;4.10;100.00;101315.31;10428403;28;20040;-81
2023/12/19 01:02:31;;;;;;;30.02;17.52;;;;;;;4.33;100.00;101313.50;10457780;28;20052;-81
2023/12/19 01:07:34;;;;;;;36.88;18.42;;;;;;;4.38;100.00;101323.03;10446861;28;20060;-81
2023/12/19 01:12:38;;;;;;;39.33;17.92;;;;;;;4.37;100.00;101313.34;10434113;28;20579;-80
2023/12/19 01:17:43;;;;;;;28.92;14.93;;;;;;;3.67;100.00;101286.84;10457913;28;20127;-81
2023/12/19 01:22:46;;;;;;;40.20;20.02;;;;;;;4.06;100.00;101284.47;10444734;28;20041;-80
2023/12/19 01:27:50;;;;;;;39.22;18.48;;;;;;;3.65;100.00;101267.47;10447413;28;20044;-78
2023/12/19 01:32:53;;;;;;;25.77;14.20;;;;;;;3.66;100.00;101245.25;10458324;28;20075;-79
2023/12/19 01:37:56;;;;;;;28.92;14.65;;;;;;;3.79;100.00;101249.19;10446993;28;20074;-79
2023/12/19 01:43:01;;;;;;;34.80;19.45;;;;;;;3.95;100.00;101270.72;10446995;28;20048;-78
2023/12/19 01:48:05;;;;;;;37.78;18.33;;;;;;;4.08;100.00;101261.31;10385565;28;20056;-81
2023/12/19 01:53:10;;;;;;;35.67;15.80;;;;;;;4.26;100.00;101237.56;10447461;28;20234;-81
2023/12/19 01:58:15;;;;;;;25.80;14.45;;;;;;;3.88;100.00;101250.63;10432437;28;20060;-81
2023/12/19 02:03:19;;;;;;;26.23;13.85;;;;;;;3.71;100.00;101259.25;10466331;28;20370;-77
2023/12/19 02:08:22;;;;;;;29.77;18.50;;;;;;;4.20;100.00;101235.13;10446987;28;20059;-79
2023/12/19 02:13:26;;;;;;;22.00;12.27;;;;;;;3.60;100.00;101208.31;10436643;28;20044;-81
2023/12/19 02:18:29;;;;;;;34.72;20.40;;;;;;;4.32;100.00;101234.66;10427317;28;20044;-81
2023/12/19 02:23:34;;;;;;;32.35;18.85;;;;;;;4.27;100.00;101229.50;10429510;28;20083;-81
2023/12/19 02:28:37;;;;;;;32.00;17.73;;;;;;;4.05;100.00;101204.72;10443480;28;20622;-79
2023/12/19 02:33:40;;;;;;;25.08;15.77;;;;;;;4.24;100.00;101203.03;10456289;28;20048;-81
2023/12/19 02:38:45;;;;;;;31.70;18.65;;;;;;;4.06;100.00;101182.53;10415404;28;20041;-81
2023/12/19 02:43:48;;;;;;;33.85;21.70;;;;;;;4.37;100.00;101174.16;10429925;28;20052;-80
2023/12/19 02:48:57;;;;;;;27.55;17.38;;;;;;;4.03;100.00;101166.69;10435380;28;20712;-80
2023/12/19 02:54:02;;;;;;;22.30;13.93;;;;;;;3.90;100.00;101159.25;10445855;28;20048;-80
2023/12/19 02:59:05;;;;;;;27.80;16.20;;;;;;;3.89;100.00;101151.31;10439843;28;20119;-79
2023/12/19 03:04:08;;;;;;;19.02;12.30;;;;;;;3.86;100.00;101162.94;10426402;28;20045;-79
2023/12/19 03:09:12;;;;;;;30.08;17.83;;;;;;;4.14;100.00;101144.06;10434191;28;20067;-80
2023/12/19 03:14:15;;;;;;;28.77;18.50;;;;;;;4.02;100.00;101157.88;10449328;28;20052;-79
2023/12/19 03:19:18;;;;;;;16.98;9.75;;;;;;;3.94;100.00;101157.31;10459818;28;20467;-80
2023/12/19 03:24:23;;;;;;;13.13;8.75;;;;;;;3.71;100.00;101160.91;10453812;28;20049;-78
2023/12/19 03:29:28;;;;;;;20.95;14.05;;;;;;;3.99;100.00;101119.91;10437733;28;20078;-81
2023/12/19 03:34:31;;;;;;;24.10;16.17;;;;;;;4.01;100.00;101116.25;10458326;28;20044;-80
2023/12/19 03:39:36;;;;;;;20.52;13.18;;;;;;;3.84;100.00;101102.78;10450587;28;20059;-79
2023/12/19 03:44:41;;;;;;;24.17;15.23;;;;;;;3.65;100.00;101100.06;10436347;28;20064;-80
2023/12/19 03:49:44;;;;;;;12.63;7.35;;;;;;;3.76;100.00;101084.53;10418665;28;20174;-80
2023/12/19 03:54:49;;;;;;;17.08;11.18;;;;;;;3.74;100.00;101078.41;10429955;28;20124;-80
2023/12/19 03:59:52;;;;;;;22.58;15.15;;;;;;;3.90;100.00;101070.66;10444991;28;20135;-79
2023/12/19 04:04:55;;;;;;;18.73;12.45;;;;;;;3.73;100.00;101087.31;10460910;28;20048;-79
2023/12/19 04:10:01;;;;;;;17.40;10.07;;;;;;;3.79;100.00;101097.69;10425809;28;20048;-80
2023/12/19 04:15:05;;;;;;;28.50;18.38;;;;;;;3.86;100.00;101085.00;10433936;28;20135;-78
2023/12/19 04:20:10;;;;;;;29.48;17.08;;;;;;;4.03;100.00;101068.31;10436097;28;20045;-79
2023/12/19 04:25:14;;;;;;;20.30;11.68;;;;;;;3.88;100.00;101067.19;10409993;28;20408;-79
2023/12/19 04:30:17;;;;;;;13.20;8.80;;;;;;;3.66;100.00;101046.84;10443578;28;20898;-80
2023/12/19 04:35:21;;;;;;;19.63;11.63;;;;;;;3.79;100.00;101071.13;10424189;28;20492;-79
2023/12/19 04:40:25;;;;;;;26.75;14.60;;;;;;;3.89;100.00;101042.34;10427226;28;21043;-80
2023/12/19 04:45:28;;;;;;;23.40;13.18;;;;;;;3.87;100.00;101047.72;10439267;28;20052;-78
2023/12/19 04:50:31;;;;;;;20.95;13.98;;;;;;;3.86;100.00;101022.06;10453474;28;20051;-79
2023/12/19 04:55:35;;;;;;;28.23;17.30;;;;;;;4.25;100.00;101015.06;10422054;28;21200;-79
2023/12/19 05:00:38;;;;;;;24.20;14.38;;;;;;;4.13;100.00;101011.16;10441139;28;20071;-80
2023/12/19 05:05:41;;;;;;;22.73;14.45;;;;;;;4.14;100.00;101018.19;10453642;28;20051;-78
2023/12/19 05:10:46;;;;;;;17.42;9.32;;;;;;;4.08;100.00;101016.69;10430747;28;20051;-79
2023/12/19 05:15:51;;;;;;;28.90;17.73;;;;;;;4.29;100.00;101009.56;10435921;28;20044;-81
2023/12/19 05:20:54;;;;;;;33.22;19.40;;;;;;;4.53;100.00;100999.59;10423058;28;20134;-80
2023/12/19 05:25:58;;;;;;;33.33;19.40;;;;;;;4.70;100.00;100980.19;10425013;28;20079;-79
2023/12/19 05:31:01;;;;;;;34.17;18.83;;;;;;;4.65;100.00;100957.38;10436262;28;20053;-78
2023/12/19 05:36:05;;;;;;;28.33;15.93;;;;;;;4.79;100.00;100939.81;10424998;28;20053;-76
2023/12/19 05:41:14;;;;;;;15.80;9.35;;;;;;;4.65;100.00;100939.63;10408340;28;20044;-79
2023/12/19 05:46:17;;;;;;;24.30;14.88;;;;;;;4.77;100.00;100938.16;10434170;28;20082;-80
2023/12/19 05:51:20;;;;;;;21.75;13.65;;;;;;;4.82;100.00;100944.97;10419391;28;20759;-77
2023/12/19 05:56:25;;;;;;;17.73;11.38;;;;;;;4.59;100.00;100951.41;10426704;28;20045;-78
2023/12/19 06:01:29;;;;;;;19.45;11.98;;;;;;;4.62;100.00;100953.06;10433409;28;20048;-79
2023/12/19 06:06:33;;;;;;;18.52;11.80;;;;;;;4.34;100.00;100948.19;10404892;28;20452;-78
2023/12/19 06:11:38;;;;;;;19.08;11.82;;;;;;;4.50;100.00;100941.22;10407672;28;20055;-79
2023/12/19 06:16:41;;;;;;;15.70;9.10;;;;;;;4.09;100.00;100936.00;10428921;28;20386;-79
2023/12/19 06:21:44;;;;;;;19.38;11.85;;;;;;;4.36;100.00;100935.66;10419296;28;20044;-79
2023/12/19 06:26:48;;;;;;;19.15;11.52;;;;;;;4.44;100.00;100919.34;10415371;28;20443;-81
2023/12/19 06:31:51;;;;;;;21.55;13.90;;;;;;;4.55;100.00;100915.25;10461582;28;20041;-80
2023/12/19 06:36:54;;;;;;;13.48;9.10;;;;;;;4.42;100.00;100919.41;10419769;28;20051;-79
2023/12/19 06:41:59;;;;;;;14.35;8.82;;;;;;;4.49;100.00;100912.84;10421383;28;20412;-81
2023/12/19 06:47:02;;;;;;;14.02;7.60;;;;;;;4.39;100.00;100911.59;10435367;28;20492;-81
2023/12/19 06:52:05;;;;;;;13.70;8.70;;;;;;;4.56;100.00;100916.13;10404400;28;21213;-80
2023/12/19 06:57:10;;;;;;;17.83;10.77;;;;;;;4.71;100.00;100911.84;10421288;28;20595;-79
2023/12/19 07:02:13;;;;;;;14.50;9.00;;;;;;;4.59;100.00;100913.31;10427571;28;20064;-78
2023/12/19 07:07:16;;;;;;;17.90;9.80;;;;;;;4.57;100.00;100896.53;10382087;28;20044;-82
2023/12/19 07:12:21;;;;;;;16.70;10.30;;;;;;;4.65;100.00;100899.69;10436749;28;20040;-80
2023/12/19 07:17:23;;;;;;;16.98;9.40;;;;;;;4.72;100.00;100895.81;10429839;28;20044;-81
2023/12/19 07:22:27;;;;;;;10.25;6.40;;;;;;;4.48;100.00;100889.88;10427365;28;20057;-81
2023/12/19 07:27:34;;;;;;;13.50;8.88;;;;;;;4.66;100.00;100872.13;10410020;28;20056;-81
2023/12/19 07:32:40;;;;;;;9.65;6.80;;;;;;;4.73;100.00;100899.34;10426705;28;20049;-81
2023/12/19 07:37:43;;;;;;;12.43;7.32;;;;;;;4.58;100.00;100872.53;10400908;28;20056;-80
2023/12/19 07:42:48;;;;;;;9.20;5.53;;;;;;;4.53;100.00;100865.72;10439433;28;20044;-81
2023/12/19 07:47:52;;;;;;;8.75;5.80;;;;;;;4.46;100.00;100867.78;10439392;28;20097;-80
2023/12/19 07:52:55;;;;;;;9.70;6.80;;;;;;;4.74;100.00;100858.47;10426100;28;20049;-79
2023/12/19 07:57:59;;;;;;;9.15;6.50;;;;;;;4.95;100.00;100846.75;10420439;28;20049;-80
2023/12/19 08:03:02;;;;;;;11.07;6.32;;;;;;;4.78;100.00;100850.25;10431483;28;21812;-80
2023/12/19 08:08:05;;;;;;;6.78;5.30;;;;;;;4.63;100.00;100840.34;10445268;28;20044;-80
2023/12/19 08:13:10;;;;;;;5.15;3.63;;;;;;;4.64;100.00;100826.13;10416039;28;20447;-80
2023/12/19 08:18:13;;;;;;;5.50;3.70;;;;;;;4.61;100.00;100812.97;10422087;28;20051;-82
2023/12/19 08:23:16;;;;;;;5.65;3.95;;;;;;;4.81;100.00;100798.66;10432035;28;20439;-81
2023/12/19 08:28:20;;;;;;;6.20;4.80;;;;;;;4.90;100.00;100802.66;10432432;28;20075;-79
2023/12/19 08:33:23;;;;;;;3.75;2.85;;;;;;;4.91;100.00;100807.03;10437850;28;20048;-79
2023/12/19 08:38:26;;;;;;;4.32;3.90;;;;;;;4.81;100.00;100804.00;10444236;28;20058;-79
2023/12/19 08:43:32;;;;;;;3.78;2.72;;;;;;;4.86;100.00;100806.44;10464447;28;20040;-79
2023/12/19 08:48:35;;;;;;;4.82;3.67;;;;;;;4.89;100.00;100780.50;10443136;28;20130;-82
2023/12/19 08:53:38;;;;;;;5.07;4.30;;;;;;;4.79;100.00;100779.25;10426081;28;20515;-82
2023/12/19 08:58:44;;;;;;;6.18;4.05;;;;;;;4.86;100.00;100777.16;10403499;28;21081;-78
2023/12/19 09:03:48;;;;;;;5.90;3.90;;;;;;;4.95;100.00;100777.53;10438980;28;20049;-80
2023/12/19 09:08:51;;;;;;;8.75;6.10;;;;;;;5.08;100.00;100776.94;10428622;28;20056;-80
2023/12/19 09:13:57;;;;;;;5.90;4.03;;;;;;;4.70;100.00;100779.72;10416410;28;20536;-79
2023/12/19 09:19:00;;;;;;;9.73;7.25;;;;;;;4.95;100.00;100777.53;10420609;28;20535;-79
2023/12/19 09:24:04;;;;;;;8.30;5.45;;;;;;;4.83;100.00;100770.19;10386219;28;20070;-80
2023/12/19 09:29:08;;;;;;;11.95;7.90;;;;;;;4.94;100.00;100741.22;10428307;28;21106;-80
2023/12/19 09:34:11;;;;;;;13.80;8.98;;;;;;;5.14;100.00;100750.84;10435808;28;20052;-80
2023/12/19 09:39:17;;;;;;;11.00;7.95;;;;;;;4.98;100.00;100753.41;10445024;28;20052;-81
2023/12/19 09:44:21;;;;;;;8.50;5.25;;;;;;;4.92;100.00;100735.09;10445151;28;20103;-80
2023/12/19 09:49:39;;;;;;;11.07;6.57;;;;;;;5.02;100.00;100732.84;10430251;28;20059;-81
2023/12/19 09:54:42;;;;;;;12.90;8.38;;;;;;;5.01;100.00;100739.97;10429994;28;20995;-81
2023/12/19 09:59:49;;;;;;;16.73;8.63;;;;;;;4.80;100.00;100738.38;10429401;28;20048;-81
2023/12/19 10:04:59;;;;;;;17.48;9.95;;;;;;;5.06;100.00;100724.59;10414722;28;20047;-80
2023/12/19 10:10:03;;;;;;;21.40;11.68;;;;;;;5.15;100.00;100720.59;10431735;28;20063;-80
2023/12/19 10:15:13;;;;;;;19.42;11.35;;;;;;;5.06;100.00;100708.63;10430195;28;20049;-80
2023/12/19 10:20:20;;;;;;;21.58;12.82;;;;;;;4.94;100.00;100698.59;10418286;28;20074;-80
2023/12/19 10:25:23;;;;;;;20.15;11.25;;;;;;;5.07;100.00;100704.16;10429519;28;20053;-82
2023/12/19 10:30:33;;;;;;;25.45;15.85;;;;;;;5.24;100.00;100684.63;10411868;28;20048;-79
2023/12/19 10:35:38;;;;;;;28.05;16.65;;;;;;;5.03;100.00;100674.19;10432007;28;20052;-82
2023/12/19 10:40:41;;;;;;;24.25;14.43;;;;;;;5.13;100.00;100663.03;10436832;28;20052;-80
2023/12/19 10:45:45;;;;;;;26.65;12.30;;;;;;;5.01;100.00;100656.56;10445482;28;20040;-81
2023/12/19 10:50:49;;;;;;;24.05;16.58;;;;;;;5.05;100.00;100639.50;10431139;28;20060;-79
2023/12/19 10:56:00;;;;;;;28.90;17.63;;;;;;;5.12;100.00;100630.22;10438117;28;20084;-80
2023/12/19 11:01:08;;;;;;;19.73;11.95;;;;;;;5.24;100.00;100637.56;10449939;28;20131;-80
2023/12/19 11:06:17;;;;;;;24.08;12.70;;;;;;;5.28;100.00;100622.25;10434766;28;20044;-81
2023/12/19 11:11:27;;;;;;;13.45;8.23;;;;;;;5.25;100.00;100604.63;10446474;28;20055;-81
2023/12/19 11:16:39;;;;;;;17.33;10.63;;;;;;;5.24;100.00;100597.59;10414245;28;20163;-80
2023/12/19 11:21:49;;;;;;;17.77;11.03;;;;;;;5.22;100.00;100580.84;10433360;28;20048;-82
2023/12/19 11:26:56;;;;;;;16.00;8.85;;;;;;;5.28;100.00;100588.47;10437356;28;20171;-80
2023/12/19 11:32:00;;;;;;;15.02;8.55;;;;;;;5.37;100.00;100564.94;10448137;28;20052;-80
2023/12/19 11:37:06;;;;;;;10.98;7.25;;;;;;;5.25;100.00;100550.50;10448613;28;20051;-79
2023/12/19 11:42:49;;;;;;;7.50;5.80;;;;;;;5.05;100.00;100563.13;10428754;28;20183;-80
2023/12/19 11:47:53;;;;;;;8.23;5.63;;;;;;;5.21;100.00;100541.84;10454967;28;20051;-80
2023/12/19 11:52:56;;;;;;;4.70;3.65;;;;;;;5.04;100.00;100537.44;10430014;28;20056;-79
2023/12/19 11:58:10;;;;;;;5.00;3.85;;;;;;;4.99;100.00;100542.19;10444036;28;20056;-78
2023/12/19 12:03:15;;;;;;;8.85;6.50;;;;;;;5.11;100.00;100545.09;10438216;28;21679;-80
2023/12/19 12:08:19;;;;;;;7.10;5.10;;;;;;;5.02;100.00;100530.50;10436579;28;21086;-80
2023/12/19 12:13:22;;;;;;;10.25;6.55;;;;;;;5.21;100.00;100509.88;10451397;28;20055;-80
2023/12/19 12:18:31;;;;;;;9.15;6.53;;;;;;;5.20;100.00;100528.59;10448842;28;20795;-79
2023/12/19 12:23:34;;;;;;;7.05;4.53;;;;;;;5.27;100.00;100503.34;10413321;28;20256;-80
2023/12/19 12:28:37;;;;;;;8.40;5.57;;;;;;;5.21;100.00;100496.56;10434454;28;20048;-80
2023/12/19 12:33:42;;;;;;;9.95;6.50;;;;;;;5.23;100.00;100485.81;10428881;28;20045;-81
2023/12/19 12:38:45;;;;;;;11.55;6.30;;;;;;;5.32;100.00;100465.75;10432684;28;20186;-81
2023/12/19 12:43:49;;;;;;;6.88;5.93;;;;;;;5.16;100.00;100460.50;10431200;28;20049;-80
2023/12/19 12:49:04;;;;;;;7.90;5.95;;;;;;;5.35;100.00;100458.47;10427048;28;21805;-81
2023/12/19 12:54:07;;;;;;;9.00;5.85;;;;;;;5.31;100.00;100456.91;10432223;28;20522;-80
2023/12/19 12:59:14;;;;;;;7.78;5.80;;;;;;;5.23;100.00;100449.38;10424794;28;20044;-82
2023/12/19 13:04:19;;;;;;;8.20;6.35;;;;;;;5.11;100.00;100446.56;10424637;28;20048;-80
2023/12/19 13:09:22;;;;;;;5.70;4.30;;;;;;;5.08;100.00;100452.94;10473336;28;20098;-83
2023/12/19 13:14:25;;;;;;;7.35;6.22;;;;;;;5.08;100.00;100446.75;10435166;28;20037;-83
2023/12/19 13:19:29;;;;;;;5.03;3.40;;;;;;;4.98;100.00;100435.72;10432015;28;20056;-82
2023/12/19 13:24:33;;;;;;;6.07;3.58;;;;;;;5.04;100.00;100422.94;10434090;28;20411;-82
2023/12/19 13:29:36;;;;;;;7.32;5.93;;;;;;;5.33;100.00;100422.22;10433258;28;20126;-81
2023/12/19 13:34:41;;;;;;;7.63;5.93;;;;;;;5.27;100.00;100410.13;10415153;28;20052;-80
2023/12/19 13:39:44;;;;;;;7.72;5.75;;;;;;;5.20;100.00;100409.59;10430030;28;20048;-81
2023/12/19 13:44:47;;;;;;;5.40;4.47;;;;;;;5.26;100.00;100401.25;10417440;28;20401;-82
2023/12/19 13:49:52;;;;;;;6.18;4.90;;;;;;;5.34;100.00;100383.97;10421859;28;20045;-80
2023/12/19 13:54:55;;;;;;;3.83;3.50;;;;;;;5.30;100.00;100377.97;10430741;28;20092;-83
2023/12/19 13:59:58;;;;;;;5.85;3.85;;;;;;;5.21;100.00;100383.81;10423055;28;20151;-81
2023/12/19 14:05:02;;;;;;;4.32;3.33;;;;;;;5.25;100.00;100380.03;10436796;28;20067;-83
2023/12/19 14:10:08;;;;;;;4.97;3.72;;;;;;;5.24;100.00;100379.19;10441275;28;20044;-81
2023/12/19 14:15:14;;;;;;;4.75;3.63;;;;;;;5.23;100.00;100366.81;10410256;28;20045;-80
2023/12/19 14:20:19;;;;;;;3.00;2.53;;;;;;;4.91;100.00;100383.75;10446675;28;20048;-83
2023/12/19 14:25:22;;;;;;;4.15;3.15;;;;;;;5.45;100.00;100352.22;10429223;28;20056;-82
2023/12/19 14:30:25;;;;;;;3.80;3.50;;;;;;;5.14;100.00;100359.38;10426595;28;21208;-82
2023/12/19 14:35:29;;;;;;;5.72;5.13;;;;;;;5.36;100.00;100358.94;10427876;28;20056;-79
2023/12/19 14:40:32;;;;;;;4.70;3.20;;;;;;;5.16;100.00;100369.94;10414638;28;20321;-80
2023/12/19 14:45:35;;;;;;;4.35;3.95;;;;;;;5.43;100.00;100362.09;10412808;28;20092;-80
2023/12/19 14:50:39;;;;;;;3.90;3.33;;;;;;;5.39;100.00;100353.44;10402594;28;20424;-80
2023/12/19 14:55:42;;;;;;;5.30;4.68;;;;;;;5.31;100.00;100354.84;10440888;28;20068;-80
2023/12/19 15:00:45;;;;;;;4.18;3.78;;;;;;;5.27;100.00;100344.38;10427909;28;20053;-80
2023/12/19 15:05:50;;;;;;;3.47;3.08;;;;;;;5.26;100.00;100341.81;10433866;28;20128;-81
2023/12/19 15:10:53;;;;;;;3.83;3.25;;;;;;;5.23;100.00;100331.34;10436720;28;20542;-81
2023/12/19 15:15:57;;;;;;;3.60;3.30;;;;;;;5.15;100.00;100330.94;10440071;28;20512;-81
2023/12/19 15:21:02;;;;;;;4.97;4.43;;;;;;;5.41;100.00;100335.56;10459638;28;20053;-81
2023/12/19 15:26:05;;;;;;;4.82;4.38;;;;;;;5.27;100.00;100316.91;10438894;28;20045;-81
2023/12/19 15:31:08;;;;;;;2.65;2.45;;;;;;;5.22;100.00;100311.00;10443896;28;20045;-80
2023/12/19 15:36:17;;;;;;;4.43;4.03;;;;;;;5.24;100.00;100317.09;10443735;28;20721;-82
2023/12/19 15:41:20;;;;;;;7.05;5.57;;;;;;;5.46;100.00;100316.66;10451785;28;20423;-82
2023/12/19 15:46:24;;;;;;;6.55;5.75;;;;;;;5.41;100.00;100305.41;10429602;28;20880;-81
2023/12/19 15:51:28;;;;;;;8.90;7.25;;;;;;;5.63;100.00;100304.94;10431559;28;20052;-82
2023/12/19 15:56:32;;;;;;;5.55;4.53;;;;;;;5.40;100.00;100291.25;10410067;28;20045;-82
2023/12/19 16:01:35;;;;;;;9.25;5.30;;;;;;;5.47;100.00;100311.22;10406511;28;20235;-83
2023/12/19 16:06:42;;;;;;;10.13;8.57;;;;;;;5.53;100.00;100295.81;10413447;28;20047;-81
2023/12/19 16:11:45;;;;;;;8.43;6.60;;;;;;;5.70;100.00;100292.94;10436360;28;20115;-81
2023/12/19 16:16:48;;;;;;;4.28;3.60;;;;;;;5.36;100.00;100295.03;10433208;28;20056;-82
2023/12/19 16:21:52;;;;;;;10.02;7.10;;;;;;;5.49;100.00;100268.50;10429371;28;20045;-82
2023/12/19 16:26:55;;;;;;;12.05;8.10;;;;;;;5.57;100.00;100263.56;10433583;28;20049;-82
2023/12/19 16:31:59;;;;;;;10.45;7.80;;;;;;;5.65;100.00;100266.59;10432685;28;20274;-81
2023/12/19 16:37:04;;;;;;;11.20;8.18;;;;;;;5.59;100.00;100261.63;10464343;28;20060;-81
2023/12/19 16:42:08;;;;;;;8.52;5.55;;;;;;;5.28;100.00;100270.66;10467942;28;20620;-81
2023/12/19 16:47:11;;;;;;;6.78;5.05;;;;;;;5.44;100.00;100262.59;10436553;28;20048;-81
2023/12/19 16:52:19;;;;;;;11.93;7.50;;;;;;;5.46;100.00;100264.22;10439392;28;20048;-81
2023/12/19 16:57:25;;;;;;;8.48;6.18;;;;;;;5.24;100.00;100267.34;10431874;28;20048;-81
2023/12/19 17:02:28;;;;;;;8.30;5.80;;;;;;;5.39;100.00;100264.69;10420659;28;20072;-81
2023/12/19 17:07:33;;;;;;;10.75;7.40;;;;;;;5.58;100.00;100267.06;10442933;28;20048;-82
2023/12/19 17:12:36;;;;;;;10.20;7.15;;;;;;;5.45;100.00;100254.50;10439193;28;20052;-80
2023/12/19 17:17:39;;;;;;;10.77;7.72;;;;;;;5.44;100.00;100260.78;10440486;28;20072;-80
2023/12/19 17:22:44;;;;;;;10.43;7.38;;;;;;;5.17;100.00;100259.81;10445730;28;20123;-79
2023/12/19 17:27:47;;;;;;;11.55;8.50;;;;;;;5.09;100.00;100262.91;10417570;28;20052;-79
2023/12/19 17:32:50;;;;;;;10.80;6.20;;;;;;;5.18;100.00;100258.84;10444050;28;20048;-81
2023/12/19 17:37:54;;;;;;;10.85;7.03;;;;;;;5.13;100.00;100252.94;10427392;28;20080;-81
2023/12/19 17:42:57;;;;;;;13.48;9.85;;;;;;;5.25;100.00;100245.06;10429521;28;20048;-80
2023/12/19 17:48:00;;;;;;;11.70;8.20;;;;;;;5.11;100.00;100245.06;10408795;28;20053;-79
2023/12/19 17:53:05;;;;;;;14.15;9.18;;;;;;;5.22;100.00;100233.75;10420054;28;20052;-79
2023/12/19 17:58:08;;;;;;;12.35;8.85;;;;;;;5.03;100.00;100231.34;10452938;28;20044;-80
2023/12/19 18:03:11;;;;;;;11.57;7.43;;;;;;;5.15;100.00;100238.56;10443185;28;20516;-81
2023/12/19 18:08:15;;;;;;;10.57;7.30;;;;;;;5.19;100.00;100225.97;10411864;28;20037;-81
2023/12/19 18:13:18;;;;;;;16.80;9.80;;;;;;;5.22;100.00;100223.09;10402152;28;20444;-81
2023/12/19 18:18:21;;;;;;;11.18;8.45;;;;;;;5.40;100.00;100224.63;10427690;28;20649;-79
2023/12/19 18:23:26;;;;;;;9.77;7.80;;;;;;;5.21;100.00;100218.72;10422306;28;20072;-81
2023/12/19 18:28:29;;;;;;;10.20;8.32;;;;;;;5.58;100.00;100219.94;10425476;28;20494;-80
2023/12/19 18:33:32;;;;;;;9.63;7.50;;;;;;;5.36;100.00;100214.25;10426218;28;20591;-81
2023/12/19 18:38:36;;;;;;;12.20;8.88;;;;;;;5.24;100.00;100223.88;10402272;28;20044;-81
2023/12/19 18:43:39;;;;;;;14.35;8.93;;;;;;;5.45;100.00;100219.00;10407429;28;20055;-79
2023/12/19 18:48:42;;;;;;;11.27;7.35;;;;;;;5.12;100.00;100227.25;10431334;28;20060;-81
2023/12/19 18:53:47;;;;;;;12.70;9.18;;;;;;;5.56;100.00;100221.00;10429142;28;20045;-80
2023/12/19 18:58:50;;;;;;;12.63;9.25;;;;;;;5.47;100.00;100211.78;10413971;28;20045;-80
2023/12/19 19:03:53;;;;;;;17.58;11.25;;;;;;;5.42;100.00;100219.19;10405404;28;20056;-80
2023/12/19 19:08:57;;;;;;;11.50;8.00;;;;;;;5.20;100.00;100201.88;10406000;28;20053;-81
2023/12/19 19:14:02;;;;;;;8.88;5.72;;;;;;;5.22;100.00;100215.97;10414612;28;20041;-79
2023/12/19 19:19:05;;;;;;;13.15;8.35;;;;;;;5.42;100.00;100209.41;10410641;28;20543;-80
2023/12/19 19:24:11;;;;;;;12.15;8.63;;;;;;;5.33;100.00;100215.31;10409454;28;20405;-81
2023/12/19 19:29:14;;;;;;;13.57;8.95;;;;;;;5.59;100.00;100208.34;10436086;28;20048;-81
2023/12/19 19:34:19;;;;;;;14.98;9.60;;;;;;;5.22;100.00;100218.63;10439711;28;20063;-83
2023/12/19 19:39:24;;;;;;;15.43;11.25;;;;;;;5.51;100.00;100213.28;10430558;28;20051;-82
2023/12/19 19:44:27;;;;;;;14.73;10.43;;;;;;;5.30;100.00;100227.97;10438571;28;20311;-82
2023/12/19 19:49:30;;;;;;;15.45;8.88;;;;;;;5.48;100.00;100219.66;10411873;28;20059;-85
2023/12/19 19:54:35;;;;;;;14.57;9.75;;;;;;;5.46;100.00;100210.09;10421332;28;20436;-84
2023/12/19 19:59:38;;;;;;;16.15;10.63;;;;;;;5.44;100.00;100204.84;10425840;28;20057;-84
2023/12/19 20:04:41;;;;;;;14.02;9.70;;;;;;;5.60;100.00;100211.88;10473960;28;20222;-81
2023/12/19 20:09:46;;;;;;;16.50;9.10;;;;;;;5.41;100.00;100221.00;10488321;28;20112;-79
2023/12/19 20:14:49;;;;;;;16.95;11.20;;;;;;;5.47;100.00;100223.28;10470019;28;20049;-81
2023/12/19 20:19:52;;;;;;;14.57;9.82;;;;;;;5.39;100.00;100217.56;10452692;28;20052;-79
2023/12/19 20:24:57;;;;;;;15.23;10.93;;;;;;;5.35;100.00;100226.72;10462689;28;20083;-80
2023/12/19 20:30:00;;;;;;;14.43;9.45;;;;;;;5.48;100.00;100221.47;10455106;28;20049;-80
2023/12/19 20:35:04;;;;;;;14.65;9.35;;;;;;;5.43;100.00;100210.25;10470369;28;20049;-79
2023/12/19 20:40:10;;;;;;;17.20;10.75;;;;;;;5.62;100.00;100210.84;10463950;28;20033;-81
2023/12/19 20:45:14;;;;;;;15.55;9.23;;;;;;;5.50;100.00;100208.91;10452025;28;20075;-81
2023/12/19 20:50:18;;;;;;;15.43;9.48;;;;;;;5.62;100.00;100215.28;10476076;28;20120;-81
2023/12/19 20:55:23;;;;;;;14.07;9.00;;;;;;;5.78;100.00;100212.50;10470148;28;20048;-81
2023/12/19 21:00:27;;;;;;;16.63;9.90;;;;;;;5.75;100.00;100202.03;10471400;28;20051;-78
2023/12/19 21:05:30;;;;;;;21.20;11.23;;;;;;;5.84;100.00;100204.09;10461071;28;20504;-81
2023/12/19 21:10:35;;;;;;;21.08;12.68;;;;;;;5.88;100.00;100198.50;10444731;28;20082;-81
2023/12/19 21:15:38;;;;;;;17.98;10.13;;;;;;;5.72;100.00;100192.44;10468701;28;20610;-80
2023/12/19 21:20:41;;;;;;;19.45;12.35;;;;;;;5.80;100.00;100174.13;10473433;28;20044;-81
2023/12/19 21:25:45;;;;;;;21.65;12.95;;;;;;;5.75;100.00;100173.56;10470634;28;20044;-82
2023/12/19 21:30:48;;;;;;;22.13;14.15;;;;;;;5.65;100.00;100176.00;10486369;28;20124;-80
2023/12/19 21:35:52;;;;;;;23.15;14.05;;;;;;;5.86;100.00;100187.06;10464801;28;20503;-81
2023/12/19 21:40:57;;;;;;;24.17;13.57;;;;;;;5.66;100.00;100179.50;10493327;28;20381;-80
2023/12/19 21:46:00;;;;;;;23.00;12.88;;;;;;;5.72;100.00;100182.63;10463576;28;20049;-80
2023/12/19 21:51:04;;;;;;;20.67;10.90;;;;;;;5.76;100.00;100166.44;10461150;28;20071;-80
2023/12/19 21:56:09;;;;;;;17.45;9.75;;;;;;;5.68;100.00;100183.78;10478111;28;20098;-81
2023/12/19 22:01:12;;;;;;;18.48;9.95;;;;;;;5.76;100.00;100183.31;10477763;28;20032;-81
2023/12/19 22:06:15;;;;;;;13.48;7.85;;;;;;;5.39;100.00;100184.75;10470697;28;20047;-82
2023/12/19 22:11:20;;;;;;;16.02;8.60;;;;;;;5.46;100.00;100172.78;10461369;28;20095;-80
2023/12/19 22:16:23;;;;;;;13.68;8.30;;;;;;;5.67;100.00;100173.22;10470612;28;20045;-79
2023/12/19 22:21:26;;;;;;;12.65;7.75;;;;;;;5.66;100.00;100167.03;10475685;28;20116;-79
2023/12/19 22:26:30;;;;;;;14.35;7.72;;;;;;;5.66;100.00;100151.03;10442592;28;20511;-80
2023/12/19 22:31:34;;;;;;;17.70;8.63;;;;;;;5.68;100.00;100143.81;10439446;28;20049;-80
2023/12/19 22:36:37;;;;;;;16.67;9.50;;;;;;;5.69;100.00;100158.84;10479483;28;20040;-78
2023/12/19 22:41:43;;;;;;;17.05;9.27;;;;;;;5.52;100.00;100159.06;10481579;28;20033;-78
2023/12/19 22:46:46;;;;;;;21.48;11.32;;;;;;;5.82;100.00;100150.91;10462746;28;20406;-80
2023/12/19 22:51:49;;;;;;;20.40;10.55;;;;;;;5.74;100.00;100153.22;10469933;28;20060;-78
2023/12/19 22:56:53;;;;;;;21.88;10.95;;;;;;;5.82;100.00;100150.91;10489346;28;20084;-79
2023/12/19 23:01:56;;;;;;;25.00;12.88;;;;;;;5.85;100.00;100153.38;10467059;28;20036;-78